sensor_id;sensor_type;location;lat;lon;timestamp;pressure;altitude;pressure_sealevel;temperature;humidity
9460;BME280;4768;42.664;23.240;2023-03-05T00:00:38;-9551.22;;;4.96;100.00
9460;BME280;4768;42.664;23.240;2023-03-05T00:03:05;-9550.81;;;4.94;100.00
9460;BME280;4768;42.664;23.240;2023-03-05T00:05:31;-9551.50;;;4.97;100.00
9460;BME280;4768;42.664;23.240;2023-03-05T00:07:59;-9551.38;;;4.96;100.00
9460;BME280;4768;42.664;23.240;2023-03-05T00:10:27;-9551.09;;;4.95;100.00
9460;BME280;4768;42.664;23.240;2023-03-05T00:12:54;-9551.09;;;4.95;100.00
9460;BME280;4768;42.664;23.240;2023-03-05T00:15:20;-9551.50;;;4.97;100.00
9460;BME280;4768;42.664;23.240;2023-03-05T00:17:47;-9550.94;;;4.95;100.00
9460;BME280;4768;42.664;23.240;2023-03-05T00:20:14;-9551.50;;;4.97;100.00
9460;BME280;4768;42.664;23.240;2023-03-05T00:22:41;-9551.66;;;4.97;100.00
9460;BME280;4768;42.664;23.240;2023-03-05T00:25:08;-9551.94;;;4.98;100.00
9460;BME280;4768;42.664;23.240;2023-03-05T00:27:36;-9551.78;;;4.98;100.00
9460;BME280;4768;42.664;23.240;2023-03-05T00:30:03;-9551.50;;;4.97;100.00
9460;BME280;4768;42.664;23.240;2023-03-05T00:32:30;-9551.50;;;4.97;100.00
9460;BME280;4768;42.664;23.240;2023-03-05T00:34:57;-9551.50;;;4.97;100.00
9460;BME280;4768;42.664;23.240;2023-03-05T00:37:24;-9551.50;;;4.97;100.00
9460;BME280;4768;42.664;23.240;2023-03-05T00:39:50;-9550.81;;;4.94;100.00
9460;BME280;4768;42.664;23.240;2023-03-05T00:42:17;-9551.09;;;4.95;100.00
9460;BME280;4768;42.664;23.240;2023-03-05T00:44:45;-9551.09;;;4.95;100.00
9460;BME280;4768;42.664;23.240;2023-03-05T00:47:12;-9550.94;;;4.95;100.00
9460;BME280;4768;42.664;23.240;2023-03-05T00:49:41;-9550.66;;;4.94;100.00
9460;BME280;4768;42.664;23.240;2023-03-05T00:52:07;-9550.94;;;4.95;100.00
9460;BME280;4768;42.664;23.240;2023-03-05T00:54:34;-9551.66;;;4.97;100.00
9460;BME280;4768;42.664;23.240;2023-03-05T00:57:01;-9551.66;;;4.97;100.00
9460;BME280;4768;42.664;23.240;2023-03-05T00:59:30;-9552.06;;;4.99;100.00
9460;BME280;4768;42.664;23.240;2023-03-05T01:01:58;-9551.94;;;4.98;100.00
9460;BME280;4768;42.664;23.240;2023-03-05T01:04:24;-9552.06;;;4.99;100.00
9460;BME280;4768;42.664;23.240;2023-03-05T01:06:51;-9551.50;;;4.97;100.00
9460;BME280;4768;42.664;23.240;2023-03-05T01:09:18;-9551.50;;;4.97;100.00
9460;BME280;4768;42.664;23.240;2023-03-05T01:11:46;-9550.94;;;4.95;100.00
9460;BME280;4768;42.664;23.240;2023-03-05T01:14:12;-9551.22;;;4.96;100.00
9460;BME280;4768;42.664;23.240;2023-03-05T01:16:39;-9551.09;;;4.95;100.00
9460;BME280;4768;42.664;23.240;2023-03-05T01:19:07;-9550.94;;;4.95;100.00
9460;BME280;4768;42.664;23.240;2023-03-05T01:21:34;-9551.09;;;4.95;100.00
9460;BME280;4768;42.664;23.240;2023-03-05T01:24:03;-9550.50;;;4.93;100.00
9460;BME280;4768;42.664;23.240;2023-03-05T01:26:30;-9550.25;;;4.92;100.00
9460;BME280;4768;42.664;23.240;2023-03-05T01:28:57;-9550.38;;;4.93;100.00
9460;BME280;4768;42.664;23.240;2023-03-05T01:31:23;-9550.66;;;4.94;100.00
9460;BME280;4768;42.664;23.240;2023-03-05T01:33:50;-9551.09;;;4.95;100.00
9460;BME280;4768;42.664;23.240;2023-03-05T01:36:19;-9551.09;;;4.95;100.00
9460;BME280;4768;42.664;23.240;2023-03-05T01:38:47;-9550.81;;;4.94;100.00
9460;BME280;4768;42.664;23.240;2023-03-05T01:41:15;-9549.94;;;4.91;100.00
9460;BME280;4768;42.664;23.240;2023-03-05T01:43:43;-9549.94;;;4.91;100.00
9460;BME280;4768;42.664;23.240;2023-03-05T01:46:25;-9549.25;;;4.89;100.00
9460;BME280;4768;42.664;23.240;2023-03-05T01:48:54;-9549.53;;;4.90;100.00
9460;BME280;4768;42.664;23.240;2023-03-05T01:51:26;-9549.53;;;4.90;100.00
9460;BME280;4768;42.664;23.240;2023-03-05T01:53:56;-9548.97;;;4.88;100.00
9460;BME280;4768;42.664;23.240;2023-03-05T01:56:25;-9548.69;;;4.87;100.00
9460;BME280;4768;42.664;23.240;2023-03-05T01:58:53;-9548.69;;;4.87;100.00
9460;BME280;4768;42.664;23.240;2023-03-05T02:01:29;-9548.13;;;4.85;100.00
9460;BME280;4768;42.664;23.240;2023-03-05T02:03:56;-9548.69;;;4.87;100.00
9460;BME280;4768;42.664;23.240;2023-03-05T02:06:24;-9548.41;;;4.86;100.00
9460;BME280;4768;42.664;23.240;2023-03-05T02:08:51;-9548.41;;;4.86;100.00
9460;BME280;4768;42.664;23.240;2023-03-05T02:11:18;-9548.69;;;4.87;100.00
9460;BME280;4768;42.664;23.240;2023-03-05T02:13:45;-9549.25;;;4.89;100.00
9460;BME280;4768;42.664;23.240;2023-03-05T02:16:12;-9548.53;;;4.86;100.00
9460;BME280;4768;42.664;23.240;2023-03-05T02:18:39;-9548.69;;;4.87;100.00
9460;BME280;4768;42.664;23.240;2023-03-05T02:21:07;-9548.53;;;4.86;100.00
9460;BME280;4768;42.664;23.240;2023-03-05T02:23:36;-9548.81;;;4.87;100.00
9460;BME280;4768;42.664;23.240;2023-03-05T02:26:03;-9547.84;;;4.84;100.00
9460;BME280;4768;42.664;23.240;2023-03-05T02:28:34;-9548.13;;;4.85;100.00
9460;BME280;4768;42.664;23.240;2023-03-05T02:31:08;-9547.69;;;4.83;100.00
9460;BME280;4768;42.664;23.240;2023-03-05T02:33:35;-9547.41;;;4.82;100.00
9460;BME280;4768;42.664;23.240;2023-03-05T02:36:02;-9546.84;;;4.80;100.00
9460;BME280;4768;42.664;23.240;2023-03-05T02:38:30;-9546.69;;;4.80;100.00
9460;BME280;4768;42.664;23.240;2023-03-05T02:40:57;-9546.13;;;4.78;100.00
9460;BME280;4768;42.664;23.240;2023-03-05T02:43:24;-9545.56;;;4.76;100.00
9460;BME280;4768;42.664;23.240;2023-03-05T02:45:51;-9545.28;;;4.75;100.00
9460;BME280;4768;42.664;23.240;2023-03-05T02:48:17;-9544.88;;;4.74;100.00
9460;BME280;4768;42.664;23.240;2023-03-05T02:50:45;-9544.31;;;4.72;100.00
9460;BME280;4768;42.664;23.240;2023-03-05T02:53:12;-9543.16;;;4.68;100.00
9460;BME280;4768;42.664;23.240;2023-03-05T02:55:41;-9542.31;;;4.65;100.00
9460;BME280;4768;42.664;23.240;2023-03-05T02:58:07;-9542.19;;;4.64;100.00
9460;BME280;4768;42.664;23.240;2023-03-05T03:00:34;-9542.31;;;4.65;100.00
9460;BME280;4768;42.664;23.240;2023-03-05T03:03:01;-9541.91;;;4.63;100.00
9460;BME280;4768;42.664;23.240;2023-03-05T03:05:28;-9542.03;;;4.64;100.00
9460;BME280;4768;42.664;23.240;2023-03-05T03:07:55;-9541.91;;;4.63;100.00
9460;BME280;4768;42.664;23.240;2023-03-05T03:10:21;-9541.47;;;4.62;100.00
9460;BME280;4768;42.664;23.240;2023-03-05T03:12:50;-9541.06;;;4.60;100.00
9460;BME280;4768;42.664;23.240;2023-03-05T03:15:17;-9539.50;;;4.55;100.00
9460;BME280;4768;42.664;23.240;2023-03-05T03:17:44;-9539.06;;;4.53;100.00
9460;BME280;4768;42.664;23.240;2023-03-05T03:20:13;-9538.22;;;4.50;100.00
9460;BME280;4768;42.664;23.240;2023-03-05T03:22:42;-9537.22;;;4.47;100.00
9460;BME280;4768;42.664;23.240;2023-03-05T03:25:19;-9536.81;;;4.45;100.00
9460;BME280;4768;42.664;23.240;2023-03-05T03:27:47;-9536.09;;;4.43;100.00
9460;BME280;4768;42.664;23.240;2023-03-05T03:30:16;-9535.25;;;4.40;100.00
9460;BME280;4768;42.664;23.240;2023-03-05T03:32:42;-9534.13;;;4.36;100.00
9460;BME280;4768;42.664;23.240;2023-03-05T03:35:10;-9533.28;;;4.33;100.00
9460;BME280;4768;42.664;23.240;2023-03-05T03:37:36;-9533.41;;;4.33;100.00
9460;BME280;4768;42.664;23.240;2023-03-05T03:40:04;-9532.28;;;4.30;100.00
9460;BME280;4768;42.664;23.240;2023-03-05T03:42:32;-9531.72;;;4.28;100.00
9460;BME280;4768;42.664;23.240;2023-03-05T03:44:58;-9532.28;;;4.30;100.00
9460;BME280;4768;42.664;23.240;2023-03-05T03:47:28;-9532.44;;;4.30;100.00
9460;BME280;4768;42.664;23.240;2023-03-05T03:49:54;-9531.44;;;4.27;100.00
9460;BME280;4768;42.664;23.240;2023-03-05T03:52:23;-9531.88;;;4.28;100.00
9460;BME280;4768;42.664;23.240;2023-03-05T03:54:51;-9531.31;;;4.26;100.00
9460;BME280;4768;42.664;23.240;2023-03-05T03:57:18;-9531.00;;;4.25;100.00
9460;BME280;4768;42.664;23.240;2023-03-05T03:59:44;-9530.59;;;4.24;100.00
9460;BME280;4768;42.664;23.240;2023-03-05T04:02:11;-9529.59;;;4.20;100.00
9460;BME280;4768;42.664;23.240;2023-03-05T04:04:39;-9528.91;;;4.18;100.00
9460;BME280;4768;42.664;23.240;2023-03-05T04:07:06;-9527.91;;;4.14;100.00
9460;BME280;4768;42.664;23.240;2023-03-05T04:09:32;-9527.63;;;4.13;100.00
9460;BME280;4768;42.664;23.240;2023-03-05T04:11:59;-9527.06;;;4.11;100.00
9460;BME280;4768;42.664;23.240;2023-03-05T04:14:26;-9526.91;;;4.11;100.00
9460;BME280;4768;42.664;23.240;2023-03-05T04:16:52;-9525.94;;;4.07;100.00
9460;BME280;4768;42.664;23.240;2023-03-05T04:19:19;-9525.78;;;4.07;100.00
9460;BME280;4768;42.664;23.240;2023-03-05T04:21:47;-9525.50;;;4.06;100.00
9460;BME280;4768;42.664;23.240;2023-03-05T04:24:14;-9525.09;;;4.04;100.00
9460;BME280;4768;42.664;23.240;2023-03-05T04:26:41;-9525.38;;;4.05;100.00
9460;BME280;4768;42.664;23.240;2023-03-05T04:29:08;-9524.94;;;4.04;100.00
9460;BME280;4768;42.664;23.240;2023-03-05T04:31:34;-9524.66;;;4.03;100.00
9460;BME280;4768;42.664;23.240;2023-03-05T04:34:01;-9524.53;;;4.02;100.00
9460;BME280;4768;42.664;23.240;2023-03-05T04:36:28;-9524.78;;;4.03;100.00
9460;BME280;4768;42.664;23.240;2023-03-05T04:38:56;-9523.81;;;4.00;100.00
9460;BME280;4768;42.664;23.240;2023-03-05T04:41:23;-9523.53;;;3.99;100.00
9460;BME280;4768;42.664;23.240;2023-03-05T04:43:49;-9522.53;;;3.95;100.00
9460;BME280;4768;42.664;23.240;2023-03-05T04:46:16;-9523.38;;;3.98;100.00
9460;BME280;4768;42.664;23.240;2023-03-05T04:48:43;-9522.69;;;3.96;100.00
9460;BME280;4768;42.664;23.240;2023-03-05T04:51:09;-9522.97;;;3.97;100.00
9460;BME280;4768;42.664;23.240;2023-03-05T04:53:36;-9522.41;;;3.95;100.00
9460;BME280;4768;42.664;23.240;2023-03-05T04:56:05;-9522.13;;;3.94;100.00
9460;BME280;4768;42.664;23.240;2023-03-05T04:58:32;-9521.56;;;3.92;100.00
9460;BME280;4768;42.664;23.240;2023-03-05T05:01:00;-9520.97;;;3.90;100.00
9460;BME280;4768;42.664;23.240;2023-03-05T05:03:27;-9520.97;;;3.90;100.00
9460;BME280;4768;42.664;23.240;2023-03-05T05:05:54;-9520.84;;;3.89;100.00
9460;BME280;4768;42.664;23.240;2023-03-05T05:08:21;-9521.13;;;3.90;100.00
9460;BME280;4768;42.664;23.240;2023-03-05T05:10:56;-9521.28;;;3.91;100.00
9460;BME280;4768;42.664;23.240;2023-03-05T05:13:25;-9521.56;;;3.92;100.00
9460;BME280;4768;42.664;23.240;2023-03-05T05:15:52;-9521.84;;;3.93;100.00
9460;BME280;4768;42.664;23.240;2023-03-05T05:18:19;-9522.13;;;3.94;100.00
9460;BME280;4768;42.664;23.240;2023-03-05T05:20:46;-9522.13;;;3.94;100.00
9460;BME280;4768;42.664;23.240;2023-03-05T05:23:13;-9522.97;;;3.97;100.00
9460;BME280;4768;42.664;23.240;2023-03-05T05:25:40;-9523.53;;;3.99;100.00
9460;BME280;4768;42.664;23.240;2023-03-05T05:28:08;-9522.97;;;3.97;100.00
9460;BME280;4768;42.664;23.240;2023-03-05T05:30:37;-9523.66;;;3.99;100.00
9460;BME280;4768;42.664;23.240;2023-03-05T05:33:03;-9524.94;;;4.04;100.00
9460;BME280;4768;42.664;23.240;2023-03-05T05:35:30;-9525.22;;;4.05;100.00
9460;BME280;4768;42.664;23.240;2023-03-05T05:37:57;-9526.06;;;4.08;100.00
9460;BME280;4768;42.664;23.240;2023-03-05T05:40:24;-9527.19;;;4.12;100.00
9460;BME280;4768;42.664;23.240;2023-03-05T05:42:50;-9527.34;;;4.12;100.00
9460;BME280;4768;42.664;23.240;2023-03-05T05:50:10;-9530.16;;;4.22;100.00
9460;BME280;4768;42.664;23.240;2023-03-05T05:52:37;-9530.31;;;4.23;100.00
9460;BME280;4768;42.664;23.240;2023-03-05T05:55:05;-9532.00;;;4.29;100.00
9460;BME280;4768;42.664;23.240;2023-03-05T05:57:32;-9532.84;;;4.31;100.00
9460;BME280;4768;42.664;23.240;2023-03-05T06:00:00;-9533.00;;;4.32;100.00
9460;BME280;4768;42.664;23.240;2023-03-05T06:02:26;-9533.00;;;4.32;100.00
9460;BME280;4768;42.664;23.240;2023-03-05T06:04:53;-9534.69;;;4.38;100.00
9460;BME280;4768;42.664;23.240;2023-03-05T06:07:21;-9534.25;;;4.36;100.00
9460;BME280;4768;42.664;23.240;2023-03-05T06:09:48;-9534.41;;;4.37;100.00
9460;BME280;4768;42.664;23.240;2023-03-05T06:14:40;-9535.25;;;4.40;100.00
9460;BME280;4768;42.664;23.240;2023-03-05T06:17:06;-9536.53;;;4.44;100.00
9460;BME280;4768;42.664;23.240;2023-03-05T06:19:33;-9537.38;;;4.47;100.00
9460;BME280;4768;42.664;23.240;2023-03-05T06:22:00;-9536.09;;;4.43;100.00
9460;BME280;4768;42.664;23.240;2023-03-05T06:24:28;-9538.66;;;4.52;100.00
9460;BME280;4768;42.664;23.240;2023-03-05T06:26:55;-9539.78;;;4.56;100.00
9460;BME280;4768;42.664;23.240;2023-03-05T06:29:21;-9539.78;;;4.56;100.00
9460;BME280;4768;42.664;23.240;2023-03-05T06:31:48;-9542.47;;;4.65;100.00
9460;BME280;4768;42.664;23.240;2023-03-05T06:34:15;-9541.47;;;4.62;100.00
9460;BME280;4768;42.664;23.240;2023-03-05T06:36:42;-9543.16;;;4.68;100.00
9460;BME280;4768;42.664;23.240;2023-03-05T06:39:09;-9544.16;;;4.71;100.00
9460;BME280;4768;42.664;23.240;2023-03-05T06:41:37;-9545.72;;;4.77;100.00
9460;BME280;4768;42.664;23.240;2023-03-05T06:44:04;-9545.28;;;4.75;100.00
9460;BME280;4768;42.664;23.240;2023-03-05T06:46:33;-9546.56;;;4.79;100.00
9460;BME280;4768;42.664;23.240;2023-03-05T06:49:02;-9544.59;;;4.73;100.00
9460;BME280;4768;42.664;23.240;2023-03-05T06:51:31;-9546.84;;;4.80;100.00
9460;BME280;4768;42.664;23.240;2023-03-05T06:53:59;-9548.25;;;4.85;100.00
9460;BME280;4768;42.664;23.240;2023-03-05T06:56:26;-9548.53;;;4.86;100.00
9460;BME280;4768;42.664;23.240;2023-03-05T06:58:54;-9550.50;;;4.93;100.00
9460;BME280;4768;42.664;23.240;2023-03-05T07:01:21;-9551.38;;;4.96;100.00
9460;BME280;4768;42.664;23.240;2023-03-05T07:03:49;-9552.50;;;5.00;100.00
9460;BME280;4768;42.664;23.240;2023-03-05T07:06:16;-9554.63;;;5.08;100.00
9460;BME280;4768;42.664;23.240;2023-03-05T07:08:43;-9551.78;;;4.98;100.00
9460;BME280;4768;42.664;23.240;2023-03-05T07:11:11;-9556.88;;;5.16;100.00
9460;BME280;4768;42.664;23.240;2023-03-05T07:13:38;-9559.56;;;5.25;100.00
9460;BME280;4768;42.664;23.240;2023-03-05T07:16:08;-9560.28;;;5.28;100.00
9460;BME280;4768;42.664;23.240;2023-03-05T07:18:35;-9566.22;;;5.48;100.00
9460;BME280;4768;42.664;23.240;2023-03-05T07:21:02;-9567.19;;;5.52;100.00
9460;BME280;4768;42.664;23.240;2023-03-05T07:23:29;-9567.06;;;5.51;100.00
9460;BME280;4768;42.664;23.240;2023-03-05T07:25:56;-9575.28;;;5.80;100.00
9460;BME280;4768;42.664;23.240;2023-03-05T07:28:23;-9576.97;;;5.86;100.00
9460;BME280;4768;42.664;23.240;2023-03-05T07:30:56;-9586.03;;;6.18;100.00
9460;BME280;4768;42.664;23.240;2023-03-05T07:33:25;-9592.69;;;6.41;100.00
9460;BME280;4768;42.664;23.240;2023-03-05T07:35:52;-9583.91;;;6.10;100.00
9460;BME280;4768;42.664;23.240;2023-03-05T07:38:19;-9579.66;;;5.95;100.00
9460;BME280;4768;42.664;23.240;2023-03-05T07:40:46;-9583.91;;;6.10;100.00
9460;BME280;4768;42.664;23.240;2023-03-05T07:43:13;-9603.16;;;6.77;100.00
9460;BME280;4768;42.664;23.240;2023-03-05T07:45:40;-9603.16;;;6.77;100.00
9460;BME280;4768;42.664;23.240;2023-03-05T07:48:08;-9617.03;;;7.26;100.00
9460;BME280;4768;42.664;23.240;2023-03-05T07:50:39;-9597.19;;;6.57;100.00
9460;BME280;4768;42.664;23.240;2023-03-05T07:53:06;-9590.56;;;6.33;100.00
9460;BME280;4768;42.664;23.240;2023-03-05T07:55:33;-9600.88;;;6.70;100.00
9460;BME280;4768;42.664;23.240;2023-03-05T07:58:00;-9617.72;;;7.28;100.00
9460;BME280;4768;42.664;23.240;2023-03-05T08:00:26;-9601.88;;;6.73;100.00
9460;BME280;4768;42.664;23.240;2023-03-05T08:02:53;-9589.56;;;6.30;100.00
9460;BME280;4768;42.664;23.240;2023-03-05T08:05:20;-9589.00;;;6.28;100.00
9460;BME280;4768;42.664;23.240;2023-03-05T08:07:48;-9590.69;;;6.34;100.00
9460;BME280;4768;42.664;23.240;2023-03-05T08:10:15;-9586.03;;;6.18;100.00
9460;BME280;4768;42.664;23.240;2023-03-05T08:12:42;-9598.75;;;6.62;100.00
9460;BME280;4768;42.664;23.240;2023-03-05T08:15:09;-9601.16;;;6.71;100.00
9460;BME280;4768;42.664;23.240;2023-03-05T08:17:36;-9594.38;;;6.47;100.00
9460;BME280;4768;42.664;23.240;2023-03-05T08:20:04;-9588.28;;;6.25;100.00
9460;BME280;4768;42.664;23.240;2023-03-05T08:22:35;-9594.94;;;6.49;100.00
9460;BME280;4768;42.664;23.240;2023-03-05T08:25:05;-9588.56;;;6.26;100.00
9460;BME280;4768;42.664;23.240;2023-03-05T08:27:32;-9581.22;;;6.01;100.00
9460;BME280;4768;42.664;23.240;2023-03-05T08:30:02;-9585.75;;;6.17;100.00
9460;BME280;4768;42.664;23.240;2023-03-05T08:32:29;-9588.56;;;6.26;100.00
9460;BME280;4768;42.664;23.240;2023-03-05T08:34:56;-9596.50;;;6.54;100.00
9460;BME280;4768;42.664;23.240;2023-03-05T08:37:23;-9600.03;;;6.67;100.00
9460;BME280;4768;42.664;23.240;2023-03-05T08:39:50;-9590.56;;;6.33;100.00
9460;BME280;4768;42.664;23.240;2023-03-05T08:42:18;-9592.25;;;6.39;100.00
9460;BME280;4768;42.664;23.240;2023-03-05T08:44:45;-9598.63;;;6.62;100.00
9460;BME280;4768;42.664;23.240;2023-03-05T08:47:11;-9597.19;;;6.57;100.00
9460;BME280;4768;42.664;23.240;2023-03-05T08:49:38;-9594.22;;;6.46;100.00
9460;BME280;4768;42.664;23.240;2023-03-05T08:52:05;-9596.34;;;6.54;100.00
9460;BME280;4768;42.664;23.240;2023-03-05T08:54:32;-9594.81;;;6.48;100.00
9460;BME280;4768;42.664;23.240;2023-03-05T08:56:59;-9597.34;;;6.57;100.00
9460;BME280;4768;42.664;23.240;2023-03-05T08:59:27;-9597.19;;;6.57;100.00
9460;BME280;4768;42.664;23.240;2023-03-05T09:01:53;-9598.34;;;6.61;100.00
9460;BME280;4768;42.664;23.240;2023-03-05T09:04:20;-9602.00;;;6.73;100.00
9460;BME280;4768;42.664;23.240;2023-03-05T09:06:47;-9599.75;;;6.66;100.00
9460;BME280;4768;42.664;23.240;2023-03-05T09:09:14;-9605.97;;;6.87;100.00
9460;BME280;4768;42.664;23.240;2023-03-05T09:11:40;-9598.91;;;6.63;100.00
9460;BME280;4768;42.664;23.240;2023-03-05T09:14:07;-9607.81;;;6.94;100.00
9460;BME280;4768;42.664;23.240;2023-03-05T09:16:35;-9607.97;;;6.94;100.00
9460;BME280;4768;42.664;23.240;2023-03-05T09:19:04;-9615.19;;;7.20;100.00
9460;BME280;4768;42.664;23.240;2023-03-05T09:21:33;-8594.44;;;7.19;100.00
9460;BME280;4768;42.664;23.240;2023-03-05T09:24:00;-5196.78;;;7.19;100.00
9460;BME280;4768;42.664;23.240;2023-03-05T09:26:27;-1794.88;;;7.15;100.00
9460;BME280;4768;42.664;23.240;2023-03-05T09:28:53;-2818.31;;;7.30;100.00
9460;BME280;4768;42.664;23.240;2023-03-05T09:31:21;5358.25;;;7.23;100.00
9460;BME280;4768;42.664;23.240;2023-03-05T09:33:49;9453.63;;;7.26;100.00
9460;BME280;4768;42.664;23.240;2023-03-05T09:36:18;15604.78;;;7.13;100.00
9460;BME280;4768;42.664;23.240;2023-03-05T09:38:45;27243.28;;;6.74;100.00
9460;BME280;4768;42.664;23.240;2023-03-05T09:41:17;22451.78;;;7.07;100.00
9460;BME280;4768;42.664;23.240;2023-03-05T09:43:54;18005.16;;;7.44;100.00
9460;BME280;4768;42.664;23.240;2023-03-05T09:46:32;24532.44;;;7.94;100.00
9460;BME280;4768;42.664;23.240;2023-03-05T09:49:15;47621.97;;;7.93;100.00
9460;BME280;4768;42.664;23.240;2023-03-05T09:51:44;67759.06;;;8.14;100.00
9460;BME280;4768;42.664;23.240;2023-03-05T09:54:14;77841.09;;;7.93;100.00
9460;BME280;4768;42.664;23.240;2023-03-05T09:56:46;85173.09;;;7.91;100.00
9460;BME280;4768;42.664;23.240;2023-03-05T09:59:19;92499.53;;;7.74;100.00
9460;BME280;4768;42.664;23.240;2023-03-05T10:01:48;103331.97;;;7.47;100.00
9460;BME280;4768;42.664;23.240;2023-03-05T10:04:20;103016.59;;;7.69;100.00
9460;BME280;4768;42.664;23.240;2023-03-05T10:06:54;123449.06;;;7.68;100.00
9460;BME280;4768;42.664;23.240;2023-03-05T10:09:35;130887.34;;;7.73;100.00
9460;BME280;4768;42.664;23.240;2023-03-05T10:12:13;157893.25;;;7.69;100.00
9460;BME280;4768;42.664;23.240;2023-03-05T10:14:45;168453.75;;;7.68;100.00
9460;BME280;4768;42.664;23.240;2023-03-05T10:17:31;168982.63;;;7.74;100.00
9460;BME280;4768;42.664;23.240;2023-03-05T10:20:45;168988.00;;;7.76;100.00
9460;BME280;4768;42.664;23.240;2023-03-05T10:23:43;168977.34;;;7.72;100.00
9460;BME280;4768;42.664;23.240;2023-03-05T10:26:30;168988.00;;;7.76;100.00
9460;BME280;4768;42.664;23.240;2023-03-05T10:29:12;168953.41;;;7.64;100.00
9460;BME280;4768;42.664;23.240;2023-03-05T10:31:53;168952.09;;;7.63;100.00
9460;BME280;4768;42.664;23.240;2023-03-05T10:34:43;168956.09;;;7.65;100.00
9460;BME280;4768;42.664;23.240;2023-03-05T10:37:43;169001.28;;;7.81;100.00
9460;BME280;4768;42.664;23.240;2023-03-05T10:40:19;169022.53;;;7.89;100.00
9460;BME280;4768;42.664;23.240;2023-03-05T10:42:53;169094.41;;;8.16;100.00
9460;BME280;4768;42.664;23.240;2023-03-05T10:45:27;169014.56;;;7.86;100.00
9460;BME280;4768;42.664;23.240;2023-03-05T10:47:58;169038.50;;;7.95;100.00
9460;BME280;4768;42.664;23.240;2023-03-05T10:50:32;169050.47;;;8.00;100.00
9460;BME280;4768;42.664;23.240;2023-03-05T10:53:11;169026.53;;;7.91;100.00
9460;BME280;4768;42.664;23.240;2023-03-05T10:55:39;168986.63;;;7.76;100.00
9460;BME280;4768;42.664;23.240;2023-03-05T10:58:10;169034.50;;;7.94;100.00
9460;BME280;4768;42.664;23.240;2023-03-05T11:00:38;169074.41;;;8.09;100.00
9460;BME280;4768;42.664;23.240;2023-03-05T11:03:06;169050.47;;;8.00;100.00
9460;BME280;4768;42.664;23.240;2023-03-05T11:05:39;169049.16;;;7.99;100.00
9460;BME280;4768;42.664;23.240;2023-03-05T11:08:30;169015.94;;;7.87;100.00
9460;BME280;4768;42.664;23.240;2023-03-05T11:11:11;168977.34;;;7.72;100.00
9460;BME280;4768;42.664;23.240;2023-03-05T11:13:43;168968.03;;;7.69;100.00
9460;BME280;4768;42.664;23.240;2023-03-05T11:16:18;169026.53;;;7.91;100.00
9460;BME280;4768;42.664;23.240;2023-03-05T11:18:45;168965.38;;;7.68;100.00
9460;BME280;4768;42.664;23.240;2023-03-05T11:21:19;168949.41;;;7.62;100.00
9460;BME280;4768;42.664;23.240;2023-03-05T11:24:05;168958.72;;;7.66;100.00
9460;BME280;4768;42.664;23.240;2023-03-05T11:26:32;168995.97;;;7.79;100.00
9460;BME280;4768;42.664;23.240;2023-03-05T11:29:01;169014.56;;;7.86;100.00
9460;BME280;4768;42.664;23.240;2023-03-05T11:31:31;169047.84;;;7.99;100.00
9460;BME280;4768;42.664;23.240;2023-03-05T11:34:00;169011.94;;;7.85;100.00
9460;BME280;4768;42.664;23.240;2023-03-05T11:36:28;168920.13;;;7.51;100.00
9460;BME280;4768;42.664;23.240;2023-03-05T11:38:58;141844.78;;;7.56;100.00
9460;BME280;4768;42.664;23.240;2023-03-05T11:41:31;149691.69;;;7.67;100.00
9460;BME280;4768;42.664;23.240;2023-03-05T11:44:00;151848.31;;;7.75;100.00
9460;BME280;4768;42.664;23.240;2023-03-05T11:46:36;153987.50;;;7.76;100.00
9460;BME280;4768;42.664;23.240;2023-03-05T11:49:04;157172.38;;;7.66;100.00
9460;BME280;4768;42.664;23.240;2023-03-05T11:51:39;157210.50;;;7.81;100.00
9460;BME280;4768;42.664;23.240;2023-03-05T11:54:13;161497.16;;;7.82;100.00
9460;BME280;4768;42.664;23.240;2023-03-05T11:56:43;143386.97;;;8.10;100.00
9460;BME280;4768;42.664;23.240;2023-03-05T11:59:15;167985.97;;;8.01;100.00
9460;BME280;4768;42.664;23.240;2023-03-05T12:01:46;169063.81;;;8.05;100.00
9460;BME280;4768;42.664;23.240;2023-03-05T12:04:13;169026.53;;;7.91;100.00
9460;BME280;4768;42.664;23.240;2023-03-05T12:06:44;143761.63;;;8.18;100.00
9460;BME280;4768;42.664;23.240;2023-03-05T12:09:17;156619.53;;;8.31;100.00
9460;BME280;4768;42.664;23.240;2023-03-05T12:11:50;169145.00;;;8.35;100.00
9460;BME280;4768;42.664;23.240;2023-03-05T12:14:21;169130.38;;;8.29;100.00
9460;BME280;4768;42.664;23.240;2023-03-05T12:16:54;163483.78;;;8.60;100.00
9460;BME280;4768;42.664;23.240;2023-03-05T12:19:37;169227.50;;;8.66;100.00
9460;BME280;4768;42.664;23.240;2023-03-05T12:22:15;169094.41;;;8.16;100.00
9460;BME280;4768;42.664;23.240;2023-03-05T12:24:42;169071.78;;;8.08;100.00
9460;BME280;4768;42.664;23.240;2023-03-05T12:27:13;168997.28;;;7.80;100.00
9460;BME280;4768;42.664;23.240;2023-03-05T12:29:46;169021.22;;;7.89;100.00
9460;BME280;4768;42.664;23.240;2023-03-05T12:35:33;169037.19;;;7.95;100.00
9460;BME280;4768;42.664;23.240;2023-03-05T12:38:28;169055.81;;;8.02;100.00
9460;BME280;4768;42.664;23.240;2023-03-05T12:44:19;169038.50;;;7.95;100.00
9460;BME280;4768;42.664;23.240;2023-03-05T12:47:21;169141.00;;;8.33;100.00
9460;BME280;4768;42.664;23.240;2023-03-05T12:49:48;169176.94;;;8.47;100.00
9460;BME280;4768;42.664;23.240;2023-03-05T12:52:26;169109.06;;;8.21;100.00
9460;BME280;4768;42.664;23.240;2023-03-05T12:55:15;169077.09;;;8.10;100.00
9460;BME280;4768;42.664;23.240;2023-03-05T12:57:45;169095.78;;;8.17;100.00
9460;BME280;4768;42.664;23.240;2023-03-05T13:00:19;169107.75;;;8.21;100.00
9460;BME280;4768;42.664;23.240;2023-03-05T13:02:51;169101.09;;;8.18;100.00
9460;BME280;4768;42.664;23.240;2023-03-05T13:05:26;169082.44;;;8.12;100.00
9460;BME280;4768;42.664;23.240;2023-03-05T13:08:10;169118.41;;;8.25;100.00
9460;BME280;4768;42.664;23.240;2023-03-05T13:10:37;169111.75;;;8.22;100.00
9460;BME280;4768;42.664;23.240;2023-03-05T13:13:03;169075.78;;;8.09;100.00
9460;BME280;4768;42.664;23.240;2023-03-05T13:15:32;169110.38;;;8.22;100.00
9460;BME280;4768;42.664;23.240;2023-03-05T13:18:01;169117.06;;;8.24;100.00
9460;BME280;4768;42.664;23.240;2023-03-05T13:20:34;169134.38;;;8.31;100.00
9460;BME280;4768;42.664;23.240;2023-03-05T13:23:14;169110.38;;;8.22;100.00
9460;BME280;4768;42.664;23.240;2023-03-05T13:25:41;169039.88;;;7.96;100.00
9460;BME280;4768;42.664;23.240;2023-03-05T13:28:11;169111.75;;;8.22;100.00
9460;BME280;4768;42.664;23.240;2023-03-05T13:30:43;169035.88;;;7.94;100.00
9460;BME280;4768;42.664;23.240;2023-03-05T13:33:15;169002.59;;;7.82;100.00